Terminal Aerodrome Forecast
Issued by NWS

Home | Current Version | Previous Version | Text Only | Print | Product List | Glossary On
Versions: 1 2 3 4 5 6 7 8 9 10 11 12 13 14 15 16 17 18 19 20 21 22 23 24 25 26 27 28 29 30 31 32 33 34 35 36 37 38 39 40
747
FTUS45 KBOU 281637 AAA
TAFBJC
TAF AMD
KBJC 281637Z 2817/2912 34005KT P6SM SKC
     FM281900 03007KT P6SM SKC
     FM282000 08008KT P6SM FEW120
     FM290100 31006KT P6SM FEW120 SCT200=

USA.gov is the U.S. government's official web portal to all federal, state and local government web resources and services.